sensor_id;sensor_type;location;lat;lon;timestamp;pressure;altitude;pressure_sealevel;temperature;humidity
60417;BME280;46263;44.726;10.396;2023-02-20T00:00:08;101366.28;;;11.04;68.75
60417;BME280;46263;44.726;10.396;2023-02-20T00:02:35;101368.38;;;11.09;68.44
60417;BME280;46263;44.726;10.396;2023-02-20T00:05:00;101373.97;;;11.09;68.04
60417;BME280;46263;44.726;10.396;2023-02-20T00:07:26;101369.84;;;10.99;68.58
60417;BME280;46263;44.726;10.396;2023-02-20T00:09:51;101369.59;;;11.02;68.56
60417;BME280;46263;44.726;10.396;2023-02-20T00:12:17;101378.72;;;10.97;68.92
60417;BME280;46263;44.726;10.396;2023-02-20T00:14:43;101381.25;;;10.95;68.79
60417;BME280;46263;44.726;10.396;2023-02-20T00:17:09;101378.94;;;10.88;68.93
60417;BME280;46263;44.726;10.396;2023-02-20T00:19:34;101384.22;;;10.81;68.89
60417;BME280;46263;44.726;10.396;2023-02-20T00:22:00;101383.97;;;10.84;68.47
60417;BME280;46263;44.726;10.396;2023-02-20T00:24:25;101393.13;;;10.79;68.47
60417;BME280;46263;44.726;10.396;2023-02-20T00:26:52;101395.59;;;10.72;68.71
60417;BME280;46263;44.726;10.396;2023-02-20T00:29:21;101396.63;;;10.74;68.65
60417;BME280;46263;44.726;10.396;2023-02-20T00:31:52;101394.06;;;10.71;68.35
60417;BME280;46263;44.726;10.396;2023-02-20T00:34:19;101398.88;;;10.65;68.87
60417;BME280;46263;44.726;10.396;2023-02-20T00:36:44;101405.72;;;10.64;68.95
60417;BME280;46263;44.726;10.396;2023-02-20T00:39:10;101397.84;;;10.62;68.75
60417;BME280;46263;44.726;10.396;2023-02-20T00:41:36;101398.59;;;10.63;68.87
60417;BME280;46263;44.726;10.396;2023-02-20T00:44:01;101397.09;;;10.62;68.69
60417;BME280;46263;44.726;10.396;2023-02-20T00:46:27;101400.06;;;10.58;68.53
60417;BME280;46263;44.726;10.396;2023-02-20T00:48:53;101401.09;;;10.55;68.40
60417;BME280;46263;44.726;10.396;2023-02-20T00:51:19;101398.75;;;10.48;68.61
60417;BME280;46263;44.726;10.396;2023-02-20T00:53:44;101400.28;;;10.49;68.55
60417;BME280;46263;44.726;10.396;2023-02-20T00:56:10;101396.19;;;10.45;68.25
60417;BME280;46263;44.726;10.396;2023-02-20T00:58:36;101390.56;;;10.39;68.62
60417;BME280;46263;44.726;10.396;2023-02-20T01:01:01;101392.56;;;10.33;68.71
60417;BME280;46263;44.726;10.396;2023-02-20T01:03:27;101380.91;;;10.40;67.94
60417;BME280;46263;44.726;10.396;2023-02-20T01:05:52;101380.47;;;10.47;67.72
60417;BME280;46263;44.726;10.396;2023-02-20T01:08:18;101383.53;;;10.49;68.01
60417;BME280;46263;44.726;10.396;2023-02-20T01:10:43;101388.78;;;10.42;68.07
60417;BME280;46263;44.726;10.396;2023-02-20T01:13:09;101385.44;;;10.32;67.40
60417;BME280;46263;44.726;10.396;2023-02-20T01:15:35;101387.63;;;10.23;67.47
60417;BME280;46263;44.726;10.396;2023-02-20T01:18:00;101400.25;;;10.13;67.70
60417;BME280;46263;44.726;10.396;2023-02-20T01:20:26;101405.63;;;10.22;67.83
60417;BME280;46263;44.726;10.396;2023-02-20T01:22:51;101403.16;;;10.30;67.70
60417;BME280;46263;44.726;10.396;2023-02-20T01:25:17;101398.13;;;10.33;67.16
60417;BME280;46263;44.726;10.396;2023-02-20T01:27:43;101402.84;;;10.22;66.99
60417;BME280;46263;44.726;10.396;2023-02-20T01:30:09;101398.31;;;10.25;66.46
60417;BME280;46263;44.726;10.396;2023-02-20T01:32:34;101399.19;;;10.11;66.30
60417;BME280;46263;44.726;10.396;2023-02-20T01:35:00;101392.94;;;9.96;66.62
60417;BME280;46263;44.726;10.396;2023-02-20T01:37:26;101387.72;;;10.03;67.30
60417;BME280;46263;44.726;10.396;2023-02-20T01:39:52;101403.22;;;10.04;66.85
60417;BME280;46263;44.726;10.396;2023-02-20T01:42:21;101397.56;;;9.99;66.74
60417;BME280;46263;44.726;10.396;2023-02-20T01:44:48;101394.09;;;9.84;67.00
60417;BME280;46263;44.726;10.396;2023-02-20T01:47:21;101394.84;;;9.84;66.82
60417;BME280;46263;44.726;10.396;2023-02-20T01:49:49;101397.72;;;9.90;66.47
60417;BME280;46263;44.726;10.396;2023-02-20T01:52:20;101395.19;;;9.92;66.21
60417;BME280;46263;44.726;10.396;2023-02-20T01:55:22;101401.22;;;9.85;66.44
60417;BME280;46263;44.726;10.396;2023-02-20T01:57:51;101392.50;;;9.77;66.80
60417;BME280;46263;44.726;10.396;2023-02-20T02:00:21;101406.47;;;9.77;67.11
60417;BME280;46263;44.726;10.396;2023-02-20T02:03:09;101399.63;;;9.78;67.58
60417;BME280;46263;44.726;10.396;2023-02-20T02:05:44;101397.59;;;9.79;67.45
60417;BME280;46263;44.726;10.396;2023-02-20T02:08:13;101405.53;;;9.86;67.54
60417;BME280;46263;44.726;10.396;2023-02-20T02:10:53;101406.13;;;9.95;66.56
60417;BME280;46263;44.726;10.396;2023-02-20T02:13:22;101414.47;;;9.90;66.12
60417;BME280;46263;44.726;10.396;2023-02-20T02:15:53;101417.69;;;9.83;66.19
60417;BME280;46263;44.726;10.396;2023-02-20T02:21:39;101417.63;;;9.77;66.13
60417;BME280;46263;44.726;10.396;2023-02-20T02:42:50;101446.06;;;9.56;66.03
60417;BME280;46263;44.726;10.396;2023-02-20T02:45:34;101447.31;;;9.55;67.09
60417;BME280;46263;44.726;10.396;2023-02-20T02:50:48;101457.72;;;9.54;66.78
60417;BME280;46263;44.726;10.396;2023-02-20T02:53:16;101469.09;;;9.51;67.32
60417;BME280;46263;44.726;10.396;2023-02-20T02:55:42;101466.84;;;9.55;66.88
60417;BME280;46263;44.726;10.396;2023-02-20T02:58:08;101461.81;;;9.59;66.73
60417;BME280;46263;44.726;10.396;2023-02-20T03:00:50;101481.34;;;9.59;67.09
60417;BME280;46263;44.726;10.396;2023-02-20T03:03:27;101485.25;;;9.67;66.48
60417;BME280;46263;44.726;10.396;2023-02-20T03:09:13;101489.44;;;9.77;66.52
60417;BME280;46263;44.726;10.396;2023-02-20T03:11:41;101481.91;;;9.83;66.70
60417;BME280;46263;44.726;10.396;2023-02-20T03:19:52;101496.13;;;9.85;66.87
60417;BME280;46263;44.726;10.396;2023-02-20T03:25:33;101495.91;;;9.88;66.49
60417;BME280;46263;44.726;10.396;2023-02-20T03:28:12;101504.44;;;9.79;66.89
60417;BME280;46263;44.726;10.396;2023-02-20T03:33:18;101511.59;;;9.86;66.66
60417;BME280;46263;44.726;10.396;2023-02-20T03:36:09;101504.78;;;9.87;66.92
60417;BME280;46263;44.726;10.396;2023-02-20T03:39:02;101509.66;;;9.92;66.52
60417;BME280;46263;44.726;10.396;2023-02-20T03:41:47;101515.78;;;9.96;66.97
60417;BME280;46263;44.726;10.396;2023-02-20T03:44:33;101517.75;;;9.90;67.02
60417;BME280;46263;44.726;10.396;2023-02-20T03:47:01;101508.94;;;9.97;67.03
60417;BME280;46263;44.726;10.396;2023-02-20T03:49:35;101516.94;;;10.04;66.61
60417;BME280;46263;44.726;10.396;2023-02-20T03:52:03;101516.44;;;10.05;66.47
60417;BME280;46263;44.726;10.396;2023-02-20T03:54:29;101530.53;;;9.96;66.72
60417;BME280;46263;44.726;10.396;2023-02-20T03:57:00;101532.63;;;10.01;66.62
60417;BME280;46263;44.726;10.396;2023-02-20T03:59:32;101537.72;;;10.03;66.41
60417;BME280;46263;44.726;10.396;2023-02-20T04:02:06;101528.38;;;10.06;66.16
60417;BME280;46263;44.726;10.396;2023-02-20T04:04:37;101537.94;;;9.99;66.58
60417;BME280;46263;44.726;10.396;2023-02-20T04:07:09;101541.53;;;10.00;66.28
60417;BME280;46263;44.726;10.396;2023-02-20T04:09:40;101543.88;;;10.07;66.41
60417;BME280;46263;44.726;10.396;2023-02-20T04:12:13;101542.84;;;10.04;66.44
60417;BME280;46263;44.726;10.396;2023-02-20T04:14:40;101542.56;;;10.02;66.56
60417;BME280;46263;44.726;10.396;2023-02-20T04:17:10;101543.06;;;10.01;66.66
60417;BME280;46263;44.726;10.396;2023-02-20T04:19:39;101544.78;;;9.98;67.16
60417;BME280;46263;44.726;10.396;2023-02-20T04:22:09;101536.34;;;9.93;67.37
60417;BME280;46263;44.726;10.396;2023-02-20T04:27:08;101536.19;;;10.02;67.10
60417;BME280;46263;44.726;10.396;2023-02-20T04:29:34;101541.84;;;10.07;66.81
60417;BME280;46263;44.726;10.396;2023-02-20T04:31:59;101532.44;;;10.05;66.94
60417;BME280;46263;44.726;10.396;2023-02-20T04:34:25;101537.59;;;10.12;66.63
60417;BME280;46263;44.726;10.396;2023-02-20T04:36:56;101544.31;;;10.00;66.64
60417;BME280;46263;44.726;10.396;2023-02-20T04:39:28;101544.97;;;9.95;66.81
60417;BME280;46263;44.726;10.396;2023-02-20T04:41:53;101543.25;;;9.97;66.88
60417;BME280;46263;44.726;10.396;2023-02-20T04:44:19;101548.16;;;10.02;66.65
60417;BME280;46263;44.726;10.396;2023-02-20T04:47:11;101555.19;;;9.98;66.31
60417;BME280;46263;44.726;10.396;2023-02-20T04:49:37;101549.63;;;9.98;66.06
60417;BME280;46263;44.726;10.396;2023-02-20T04:52:03;101559.22;;;9.97;66.10
60417;BME280;46263;44.726;10.396;2023-02-20T04:54:29;101558.09;;;9.89;65.92
60417;BME280;46263;44.726;10.396;2023-02-20T04:56:54;101562.56;;;9.81;66.24
60417;BME280;46263;44.726;10.396;2023-02-20T04:59:20;101566.47;;;9.89;65.74
60417;BME280;46263;44.726;10.396;2023-02-20T05:01:46;101571.44;;;9.79;66.43
60417;BME280;46263;44.726;10.396;2023-02-20T05:04:18;101564.84;;;9.82;66.76
60417;BME280;46263;44.726;10.396;2023-02-20T05:06:48;101571.69;;;9.81;67.10
60417;BME280;46263;44.726;10.396;2023-02-20T05:09:14;101568.22;;;9.86;66.58
60417;BME280;46263;44.726;10.396;2023-02-20T05:11:39;101573.59;;;9.90;66.40
60417;BME280;46263;44.726;10.396;2023-02-20T05:14:05;101582.72;;;9.90;66.15
60417;BME280;46263;44.726;10.396;2023-02-20T05:16:31;101584.47;;;9.88;66.11
60417;BME280;46263;44.726;10.396;2023-02-20T05:18:57;101579.31;;;9.81;65.96
60417;BME280;46263;44.726;10.396;2023-02-20T05:21:26;101574.50;;;9.81;65.72
60417;BME280;46263;44.726;10.396;2023-02-20T05:24:10;101574.66;;;9.72;65.50
60417;BME280;46263;44.726;10.396;2023-02-20T05:26:35;101577.22;;;9.76;65.20
60417;BME280;46263;44.726;10.396;2023-02-20T05:29:01;101572.69;;;9.78;65.00
60417;BME280;46263;44.726;10.396;2023-02-20T05:31:27;101582.59;;;9.79;64.71
60417;BME280;46263;44.726;10.396;2023-02-20T05:33:52;101585.81;;;9.72;64.79
60417;BME280;46263;44.726;10.396;2023-02-20T05:36:18;101570.78;;;9.70;64.48
60417;BME280;46263;44.726;10.396;2023-02-20T05:38:43;101574.50;;;9.61;65.15
60417;BME280;46263;44.726;10.396;2023-02-20T05:41:14;101586.41;;;9.62;64.93
60417;BME280;46263;44.726;10.396;2023-02-20T05:43:40;101585.97;;;9.49;64.97
60417;BME280;46263;44.726;10.396;2023-02-20T05:46:05;101581.66;;;9.48;65.00
60417;BME280;46263;44.726;10.396;2023-02-20T05:48:31;101580.69;;;9.51;64.77
60417;BME280;46263;44.726;10.396;2023-02-20T05:50:56;101578.44;;;9.55;64.95
60417;BME280;46263;44.726;10.396;2023-02-20T05:53:22;101580.41;;;9.49;65.51
60417;BME280;46263;44.726;10.396;2023-02-20T05:55:48;101584.16;;;9.46;65.57
60417;BME280;46263;44.726;10.396;2023-02-20T05:58:13;101596.84;;;9.47;65.39
60417;BME280;46263;44.726;10.396;2023-02-20T06:00:39;101590.97;;;9.45;65.86
60417;BME280;46263;44.726;10.396;2023-02-20T06:03:06;101581.94;;;9.50;65.31
60417;BME280;46263;44.726;10.396;2023-02-20T06:05:32;101578.25;;;9.58;65.10
60417;BME280;46263;44.726;10.396;2023-02-20T06:07:58;101587.88;;;9.57;64.85
60417;BME280;46263;44.726;10.396;2023-02-20T06:10:23;101593.94;;;9.56;64.86
60417;BME280;46263;44.726;10.396;2023-02-20T06:12:49;101605.59;;;9.54;65.23
60417;BME280;46263;44.726;10.396;2023-02-20T06:15:14;101601.56;;;9.55;65.01
60417;BME280;46263;44.726;10.396;2023-02-20T06:17:40;101594.16;;;9.52;64.63
60417;BME280;46263;44.726;10.396;2023-02-20T06:20:06;101601.38;;;9.45;65.13
60417;BME280;46263;44.726;10.396;2023-02-20T06:22:32;101608.72;;;9.42;65.09
60417;BME280;46263;44.726;10.396;2023-02-20T06:24:57;101604.66;;;9.43;64.91
60417;BME280;46263;44.726;10.396;2023-02-20T06:27:23;101611.50;;;9.42;64.92
60417;BME280;46263;44.726;10.396;2023-02-20T06:29:48;101614.28;;;9.42;65.07
60417;BME280;46263;44.726;10.396;2023-02-20T06:32:15;101610.25;;;9.43;64.79
60417;BME280;46263;44.726;10.396;2023-02-20T06:34:43;101613.88;;;9.49;64.64
60417;BME280;46263;44.726;10.396;2023-02-20T06:37:09;101619.25;;;9.52;64.16
60417;BME280;46263;44.726;10.396;2023-02-20T06:39:35;101617.06;;;9.42;64.67
60417;BME280;46263;44.726;10.396;2023-02-20T06:42:00;101620.81;;;9.39;65.47
60417;BME280;46263;44.726;10.396;2023-02-20T06:44:26;101628.91;;;9.37;64.96
60417;BME280;46263;44.726;10.396;2023-02-20T06:46:52;101629.38;;;9.50;64.85
60417;BME280;46263;44.726;10.396;2023-02-20T06:49:18;101627.44;;;9.56;64.64
60417;BME280;46263;44.726;10.396;2023-02-20T06:51:43;101633.50;;;9.54;64.81
60417;BME280;46263;44.726;10.396;2023-02-20T06:54:11;101637.06;;;9.55;64.49
60417;BME280;46263;44.726;10.396;2023-02-20T06:56:37;101643.22;;;9.59;64.35
60417;BME280;46263;44.726;10.396;2023-02-20T06:59:04;101653.69;;;9.64;64.33
60417;BME280;46263;44.726;10.396;2023-02-20T07:01:37;101649.22;;;9.72;64.02
60417;BME280;46263;44.726;10.396;2023-02-20T07:04:04;101654.53;;;9.70;64.86
60417;BME280;46263;44.726;10.396;2023-02-20T07:06:30;101656.16;;;9.76;64.48
60417;BME280;46263;44.726;10.396;2023-02-20T07:08:56;101660.28;;;9.81;64.60
60417;BME280;46263;44.726;10.396;2023-02-20T07:11:22;101666.75;;;9.72;64.80
60417;BME280;46263;44.726;10.396;2023-02-20T07:13:48;101664.50;;;9.56;64.82
60417;BME280;46263;44.726;10.396;2023-02-20T07:16:15;101669.50;;;9.52;65.01
60417;BME280;46263;44.726;10.396;2023-02-20T07:18:40;101673.53;;;9.51;65.36
60417;BME280;46263;44.726;10.396;2023-02-20T07:21:06;101673.16;;;9.44;65.00
60417;BME280;46263;44.726;10.396;2023-02-20T07:23:32;101680.50;;;9.27;65.30
60417;BME280;46263;44.726;10.396;2023-02-20T07:25:57;101684.53;;;9.26;65.59
60417;BME280;46263;44.726;10.396;2023-02-20T07:28:23;101682.41;;;9.21;65.46
60417;BME280;46263;44.726;10.396;2023-02-20T07:30:49;101689.06;;;9.24;65.98
60417;BME280;46263;44.726;10.396;2023-02-20T07:33:18;101687.22;;;9.35;66.08
60417;BME280;46263;44.726;10.396;2023-02-20T07:35:44;101691.06;;;9.38;66.67
60417;BME280;46263;44.726;10.396;2023-02-20T07:38:10;101685.09;;;9.45;66.54
60417;BME280;46263;44.726;10.396;2023-02-20T07:40:36;101696.72;;;9.43;67.18
60417;BME280;46263;44.726;10.396;2023-02-20T07:43:02;101692.31;;;9.51;67.11
60417;BME280;46263;44.726;10.396;2023-02-20T07:45:27;101700.75;;;9.56;67.47
60417;BME280;46263;44.726;10.396;2023-02-20T07:47:53;101693.59;;;9.70;67.24
60417;BME280;46263;44.726;10.396;2023-02-20T07:50:19;101703.69;;;9.82;67.24
60417;BME280;46263;44.726;10.396;2023-02-20T07:52:44;101702.31;;;9.92;67.33
60417;BME280;46263;44.726;10.396;2023-02-20T07:55:15;101700.69;;;10.00;67.03
60417;BME280;46263;44.726;10.396;2023-02-20T07:57:41;101701.53;;;9.91;68.19
60417;BME280;46263;44.726;10.396;2023-02-20T08:00:07;101702.88;;;9.96;68.25
60417;BME280;46263;44.726;10.396;2023-02-20T08:02:33;101706.06;;;10.03;68.20
60417;BME280;46263;44.726;10.396;2023-02-20T08:04:59;101710.34;;;10.19;68.25
60417;BME280;46263;44.726;10.396;2023-02-20T08:07:24;101709.25;;;10.31;68.17
60417;BME280;46263;44.726;10.396;2023-02-20T08:09:50;101705.06;;;10.40;68.22
60417;BME280;46263;44.726;10.396;2023-02-20T08:12:16;101708.59;;;10.41;68.39
60417;BME280;46263;44.726;10.396;2023-02-20T08:14:41;101713.13;;;10.58;67.79
60417;BME280;46263;44.726;10.396;2023-02-20T08:17:07;101707.19;;;10.71;67.99
60417;BME280;46263;44.726;10.396;2023-02-20T08:19:32;101713.41;;;10.80;67.89
60417;BME280;46263;44.726;10.396;2023-02-20T08:21:58;101708.66;;;10.86;67.96
60417;BME280;46263;44.726;10.396;2023-02-20T08:24:23;101713.88;;;10.79;69.02
60417;BME280;46263;44.726;10.396;2023-02-20T08:26:49;101707.19;;;10.71;69.45
60417;BME280;46263;44.726;10.396;2023-02-20T08:29:15;101700.84;;;10.70;69.57
60417;BME280;46263;44.726;10.396;2023-02-20T08:31:41;101705.03;;;10.80;69.63
60417;BME280;46263;44.726;10.396;2023-02-20T08:34:07;101701.94;;;10.78;70.26
60417;BME280;46263;44.726;10.396;2023-02-20T08:36:33;101708.34;;;10.84;69.90
60417;BME280;46263;44.726;10.396;2023-02-20T08:38:59;101701.56;;;10.91;70.05
60417;BME280;46263;44.726;10.396;2023-02-20T08:41:26;101705.13;;;10.91;70.66
60417;BME280;46263;44.726;10.396;2023-02-20T08:43:51;101711.44;;;11.11;69.65
60417;BME280;46263;44.726;10.396;2023-02-20T08:46:17;101698.78;;;11.16;69.53
60417;BME280;46263;44.726;10.396;2023-02-20T08:48:43;101697.78;;;11.19;68.85
60417;BME280;46263;44.726;10.396;2023-02-20T08:51:09;101696.63;;;11.31;68.67
60417;BME280;46263;44.726;10.396;2023-02-20T08:53:37;101696.91;;;11.33;69.09
60417;BME280;46263;44.726;10.396;2023-02-20T08:56:04;101696.66;;;11.36;69.01
60417;BME280;46263;44.726;10.396;2023-02-20T08:58:30;101698.22;;;11.37;68.95
60417;BME280;46263;44.726;10.396;2023-02-20T09:00:55;101699.00;;;11.38;68.54
60417;BME280;46263;44.726;10.396;2023-02-20T09:03:21;101693.88;;;11.36;68.90
60417;BME280;46263;44.726;10.396;2023-02-20T09:05:47;101700.03;;;11.40;68.33
60417;BME280;46263;44.726;10.396;2023-02-20T09:08:13;101699.16;;;11.54;68.26
60417;BME280;46263;44.726;10.396;2023-02-20T09:10:39;101701.22;;;11.59;68.06
60417;BME280;46263;44.726;10.396;2023-02-20T09:13:04;101701.25;;;11.65;67.79
60417;BME280;46263;44.726;10.396;2023-02-20T09:15:30;101702.09;;;11.71;67.58
60417;BME280;46263;44.726;10.396;2023-02-20T09:18:00;101702.28;;;11.62;67.30
60417;BME280;46263;44.726;10.396;2023-02-20T09:20:26;101701.72;;;11.58;67.45
60417;BME280;46263;44.726;10.396;2023-02-20T09:22:56;101694.56;;;11.57;67.79
60417;BME280;46263;44.726;10.396;2023-02-20T09:25:22;101698.47;;;11.65;67.78
60417;BME280;46263;44.726;10.396;2023-02-20T09:27:47;101699.31;;;11.76;67.62
60417;BME280;46263;44.726;10.396;2023-02-20T09:30:15;101698.38;;;11.85;66.99
60417;BME280;46263;44.726;10.396;2023-02-20T09:32:44;101696.91;;;11.94;66.43
60417;BME280;46263;44.726;10.396;2023-02-20T09:35:22;101692.13;;;12.06;66.51
60417;BME280;46263;44.726;10.396;2023-02-20T09:37:48;101698.03;;;12.13;66.61
60417;BME280;46263;44.726;10.396;2023-02-20T09:40:15;101694.50;;;12.18;66.24
60417;BME280;46263;44.726;10.396;2023-02-20T09:42:50;101698.06;;;12.19;66.90
60417;BME280;46263;44.726;10.396;2023-02-20T09:45:27;101690.97;;;12.29;66.30
60417;BME280;46263;44.726;10.396;2023-02-20T09:48:21;101693.81;;;12.34;66.19
60417;BME280;46263;44.726;10.396;2023-02-20T09:50:58;101691.28;;;12.42;65.84
60417;BME280;46263;44.726;10.396;2023-02-20T09:55:54;101693.69;;;12.65;66.64
60417;BME280;46263;44.726;10.396;2023-02-20T09:58:26;101699.56;;;12.78;66.18
60417;BME280;46263;44.726;10.396;2023-02-20T10:00:57;101712.41;;;12.90;65.38
60417;BME280;46263;44.726;10.396;2023-02-20T10:03:36;101705.47;;;12.80;64.25
60417;BME280;46263;44.726;10.396;2023-02-20T10:06:16;101707.72;;;12.71;64.61
60417;BME280;46263;44.726;10.396;2023-02-20T10:08:42;101703.41;;;12.75;64.23
60417;BME280;46263;44.726;10.396;2023-02-20T10:11:09;101693.47;;;12.85;64.15
60417;BME280;46263;44.726;10.396;2023-02-20T10:16:42;101697.38;;;13.04;64.78
60417;BME280;46263;44.726;10.396;2023-02-20T10:19:24;101697.63;;;12.95;64.25
60417;BME280;46263;44.726;10.396;2023-02-20T10:27:22;101691.69;;;12.82;64.29
60417;BME280;46263;44.726;10.396;2023-02-20T10:29:50;101698.59;;;12.86;63.82
60417;BME280;46263;44.726;10.396;2023-02-20T10:32:29;101687.91;;;12.90;64.63
60417;BME280;46263;44.726;10.396;2023-02-20T10:35:03;101688.69;;;13.02;64.38
60417;BME280;46263;44.726;10.396;2023-02-20T10:37:52;101691.78;;;13.09;64.84
60417;BME280;46263;44.726;10.396;2023-02-20T10:43:08;101686.69;;;13.30;64.58
60417;BME280;46263;44.726;10.396;2023-02-20T10:45:57;101683.66;;;13.39;64.58
60417;BME280;46263;44.726;10.396;2023-02-20T10:48:30;101693.59;;;13.34;65.03
60417;BME280;46263;44.726;10.396;2023-02-20T10:53:43;101683.41;;;13.48;64.98
60417;BME280;46263;44.726;10.396;2023-02-20T10:56:22;101670.88;;;13.49;64.31
60417;BME280;46263;44.726;10.396;2023-02-20T11:01:29;101676.75;;;13.61;65.32
60417;BME280;46263;44.726;10.396;2023-02-20T11:06:35;101672.41;;;13.71;65.30
60417;BME280;46263;44.726;10.396;2023-02-20T11:09:01;101669.06;;;13.62;65.27
60417;BME280;46263;44.726;10.396;2023-02-20T11:11:33;101658.56;;;13.73;64.24
60417;BME280;46263;44.726;10.396;2023-02-20T11:14:04;101663.97;;;13.77;64.50
60417;BME280;46263;44.726;10.396;2023-02-20T11:17:12;101659.59;;;13.81;64.52
60417;BME280;46263;44.726;10.396;2023-02-20T11:19:49;101653.72;;;13.85;64.14
60417;BME280;46263;44.726;10.396;2023-02-20T11:22:17;101654.47;;;13.85;65.24
60417;BME280;46263;44.726;10.396;2023-02-20T11:24:44;101654.22;;;13.94;65.55
60417;BME280;46263;44.726;10.396;2023-02-20T11:27:14;101633.75;;;13.99;64.18
60417;BME280;46263;44.726;10.396;2023-02-20T11:32:36;101633.19;;;14.06;64.84
60417;BME280;46263;44.726;10.396;2023-02-20T11:37:44;101625.78;;;14.14;64.55
60417;BME280;46263;44.726;10.396;2023-02-20T11:40:33;101616.78;;;14.32;63.48
60417;BME280;46263;44.726;10.396;2023-02-20T11:43:42;101620.31;;;14.38;62.68
60417;BME280;46263;44.726;10.396;2023-02-20T11:46:19;101612.84;;;14.51;62.22
60417;BME280;46263;44.726;10.396;2023-02-20T11:48:58;101613.09;;;14.53;62.92
60417;BME280;46263;44.726;10.396;2023-02-20T11:51:44;101608.69;;;14.63;62.62
60417;BME280;46263;44.726;10.396;2023-02-20T11:54:21;101610.66;;;14.74;62.53
60417;BME280;46263;44.726;10.396;2023-02-20T11:59:42;101593.91;;;14.92;61.77
60417;BME280;46263;44.726;10.396;2023-02-20T12:04:41;101585.34;;;15.09;61.70
60417;BME280;46263;44.726;10.396;2023-02-20T12:09:49;101585.22;;;15.19;60.20
60417;BME280;46263;44.726;10.396;2023-02-20T12:12:17;101577.00;;;15.27;60.83
60417;BME280;46263;44.726;10.396;2023-02-20T12:14:49;101572.03;;;15.38;61.00
60417;BME280;46263;44.726;10.396;2023-02-20T12:17:37;101574.25;;;15.45;60.59
60417;BME280;46263;44.726;10.396;2023-02-20T12:20:25;101569.31;;;15.51;61.21
60417;BME280;46263;44.726;10.396;2023-02-20T12:36:53;101546.75;;;15.75;58.68
60417;BME280;46263;44.726;10.396;2023-02-20T12:39:23;101537.25;;;15.78;59.02
60417;BME280;46263;44.726;10.396;2023-02-20T12:42:02;101525.06;;;15.89;59.67
60417;BME280;46263;44.726;10.396;2023-02-20T12:47:30;101522.28;;;16.07;58.79
60417;BME280;46263;44.726;10.396;2023-02-20T12:55:55;101498.03;;;16.17;58.01
60417;BME280;46263;44.726;10.396;2023-02-20T12:58:34;101498.25;;;16.19;58.65
60417;BME280;46263;44.726;10.396;2023-02-20T13:01:06;101495.00;;;16.15;57.29
60417;BME280;46263;44.726;10.396;2023-02-20T13:03:45;101483.09;;;16.22;58.32
60417;BME280;46263;44.726;10.396;2023-02-20T13:06:20;101481.56;;;16.21;58.71
60417;BME280;46263;44.726;10.396;2023-02-20T13:11:27;101475.63;;;16.24;57.71
60417;BME280;46263;44.726;10.396;2023-02-20T13:17:02;101467.06;;;16.11;57.08
60417;BME280;46263;44.726;10.396;2023-02-20T13:19:53;101470.28;;;16.21;57.55
60417;BME280;46263;44.726;10.396;2023-02-20T13:22:20;101468.13;;;16.27;57.41
60417;BME280;46263;44.726;10.396;2023-02-20T13:24:46;101469.06;;;16.35;57.46
60417;BME280;46263;44.726;10.396;2023-02-20T13:27:30;101459.75;;;16.21;56.27
60417;BME280;46263;44.726;10.396;2023-02-20T13:29:58;101462.13;;;16.17;57.01
60417;BME280;46263;44.726;10.396;2023-02-20T13:32:27;101463.78;;;16.26;56.76
60417;BME280;46263;44.726;10.396;2023-02-20T13:35:33;101467.31;;;16.32;57.53
60417;BME280;46263;44.726;10.396;2023-02-20T13:38:10;101454.53;;;16.31;56.10
60417;BME280;46263;44.726;10.396;2023-02-20T13:40:41;101455.94;;;16.37;55.87
60417;BME280;46263;44.726;10.396;2023-02-20T13:56:51;101430.34;;;16.17;55.92
60417;BME280;46263;44.726;10.396;2023-02-20T13:59:19;101423.56;;;16.25;55.89
60417;BME280;46263;44.726;10.396;2023-02-20T14:04:36;101413.94;;;16.34;57.10
60417;BME280;46263;44.726;10.396;2023-02-20T14:07:02;101414.16;;;16.36;57.05
60417;BME280;46263;44.726;10.396;2023-02-20T14:09:29;101411.13;;;16.34;56.45
60417;BME280;46263;44.726;10.396;2023-02-20T14:12:07;101409.28;;;16.36;55.53
60417;BME280;46263;44.726;10.396;2023-02-20T14:14:42;101404.72;;;16.33;56.02
60417;BME280;46263;44.726;10.396;2023-02-20T14:17:18;101407.00;;;16.35;56.16
60417;BME280;46263;44.726;10.396;2023-02-20T14:19:47;101404.25;;;16.29;56.12
60417;BME280;46263;44.726;10.396;2023-02-20T14:24:45;101403.34;;;16.21;55.20
60417;BME280;46263;44.726;10.396;2023-02-20T14:27:30;101393.75;;;16.11;55.35
60417;BME280;46263;44.726;10.396;2023-02-20T14:30:22;101399.53;;;16.19;55.52
60417;BME280;46263;44.726;10.396;2023-02-20T14:32:53;101394.34;;;16.23;56.08
60417;BME280;46263;44.726;10.396;2023-02-20T14:38:14;101386.09;;;16.25;56.07
60417;BME280;46263;44.726;10.396;2023-02-20T14:40:44;101383.81;;;16.23;56.18
60417;BME280;46263;44.726;10.396;2023-02-20T14:43:23;101384.56;;;16.24;55.56
60417;BME280;46263;44.726;10.396;2023-02-20T14:46:02;101383.91;;;16.18;55.51
60417;BME280;46263;44.726;10.396;2023-02-20T14:48:31;101385.66;;;16.21;56.24
60417;BME280;46263;44.726;10.396;2023-02-20T14:51:24;101377.94;;;16.21;56.93
60417;BME280;46263;44.726;10.396;2023-02-20T14:54:17;101381.94;;;16.13;57.04
60417;BME280;46263;44.726;10.396;2023-02-20T14:56:44;101378.13;;;16.10;57.27
60417;BME280;46263;44.726;10.396;2023-02-20T14:59:33;101370.66;;;16.13;57.35
60417;BME280;46263;44.726;10.396;2023-02-20T15:02:00;101378.34;;;16.12;56.96
60417;BME280;46263;44.726;10.396;2023-02-20T15:04:27;101377.28;;;16.15;56.98